Time;durP1;ratioP1;P1;durP2;ratioP2;P2;SDS_P1;SDS_P2;PMS_P1;PMS_P2;Temp;Humidity;BMP_temperature;BMP_pressure;BME280_temperature;BME280_humidity;BME280_pressure;Samples;Min_cycle;Max_cycle;Signal;HPM_P1;HPM_P2
2022/08/09 00:00:51;;;;;;;5.78;1.02;;;16.10;99.90;;;;;;4945228;29;20039;-73
2022/08/09 00:03:16;;;;;;;3.10;1.23;;;16.10;99.90;;;;;;4945907;29;20018;-73
2022/08/09 00:05:42;;;;;;;2.58;0.90;;;16.10;99.90;;;;;;4945831;29;20027;-74
2022/08/09 00:08:09;;;;;;;2.45;1.23;;;16.00;99.90;;;;;;4945770;29;20035;-73
2022/08/09 00:10:35;;;;;;;2.53;0.85;;;16.10;99.90;;;;;;4945361;29;20020;-74
2022/08/09 00:13:01;;;;;;;2.45;1.25;;;16.00;99.90;;;;;;4943946;29;20054;-74
2022/08/09 00:15:27;;;;;;;6.85;0.80;;;16.00;99.90;;;;;;4944314;29;20083;-73
2022/08/09 00:17:53;;;;;;;1.95;0.77;;;15.90;99.90;;;;;;4945674;29;20056;-73
2022/08/09 00:20:18;;;;;;;0.73;0.55;;;15.80;99.90;;;;;;4945213;29;20042;-73
2022/08/09 00:22:44;;;;;;;7.22;1.13;;;15.90;99.90;;;;;;4945849;29;20027;-74
2022/08/09 00:25:09;;;;;;;1.10;0.80;;;15.90;99.90;;;;;;4944020;29;20055;-73
2022/08/09 00:27:35;;;;;;;0.70;0.50;;;15.80;99.90;;;;;;4945179;29;20032;-74
2022/08/09 00:30:01;;;;;;;1.73;0.90;;;15.80;99.90;;;;;;4945711;29;20114;-73
2022/08/09 00:32:28;;;;;;;2.20;1.02;;;15.80;99.90;;;;;;4943849;29;20028;-74
2022/08/09 00:34:55;;;;;;;4.63;0.90;;;15.80;99.90;;;;;;4945530;29;20075;-74
2022/08/09 00:37:21;;;;;;;1.05;0.77;;;15.80;99.90;;;;;;4943886;29;20035;-73
2022/08/09 00:39:46;;;;;;;1.98;0.93;;;15.80;99.90;;;;;;4944983;29;20083;-73
2022/08/09 00:42:12;;;;;;;6.55;1.05;;;15.80;99.90;;;;;;4945273;29;20068;-74
2022/08/09 00:44:37;;;;;;;1.10;0.73;;;15.80;99.90;;;;;;4945316;29;20067;-73
2022/08/09 00:47:03;;;;;;;0.88;0.80;;;15.80;99.90;;;;;;4944778;29;20030;-73
2022/08/09 00:49:29;;;;;;;1.15;0.70;;;15.70;99.90;;;;;;4944905;29;20066;-74
2022/08/09 00:51:55;;;;;;;1.35;0.95;;;15.70;99.90;;;;;;4945415;29;20107;-74
2022/08/09 00:54:22;;;;;;;1.15;0.65;;;15.60;99.90;;;;;;4944800;29;20561;-73
2022/08/09 00:56:48;;;;;;;2.70;0.98;;;15.60;99.90;;;;;;4944275;29;20019;-73
2022/08/09 00:59:14;;;;;;;3.03;1.10;;;15.60;99.90;;;;;;4945106;29;20028;-73
2022/08/09 01:01:41;;;;;;;0.90;0.73;;;15.60;99.90;;;;;;4944320;29;20039;-74
2022/08/09 01:04:15;;;;;;;0.98;0.70;;;15.60;99.90;;;;;;4944336;29;20119;-74
2022/08/09 01:07:05;;;;;;;4.75;0.90;;;15.60;99.90;;;;;;4944769;29;20027;-73
2022/08/09 01:09:43;;;;;;;3.00;1.02;;;15.60;99.90;;;;;;4944234;29;20035;-74
2022/08/09 01:12:55;;;;;;;4.15;1.00;;;15.60;99.90;;;;;;4943771;29;20218;-72
2022/08/09 01:15:24;;;;;;;2.47;0.68;;;15.60;99.90;;;;;;4940500;29;20048;-73
2022/08/09 01:18:05;;;;;;;2.67;1.05;;;15.50;99.90;;;;;;4943779;29;20112;-74
2022/08/09 01:21:08;;;;;;;1.42;0.80;;;15.50;99.90;;;;;;4944953;29;20036;-74
2022/08/09 01:24:01;;;;;;;1.17;0.65;;;15.50;99.90;;;;;;4942455;29;20023;-74
2022/08/09 01:26:40;;;;;;;1.65;1.05;;;15.40;99.90;;;;;;4942876;29;20027;-73
2022/08/09 01:29:08;;;;;;;2.88;0.85;;;15.30;99.90;;;;;;4944017;29;20020;-73
2022/08/09 01:31:36;;;;;;;7.45;1.30;;;15.40;99.90;;;;;;4943748;29;20027;-73
2022/08/09 01:34:04;;;;;;;1.80;1.02;;;15.40;99.90;;;;;;4944048;29;20036;-73
2022/08/09 01:36:32;;;;;;;3.80;0.90;;;15.30;99.90;;;;;;4944435;29;20030;-73
2022/08/09 01:39:00;;;;;;;1.10;0.90;;;15.30;99.90;;;;;;4943898;29;20079;-73
2022/08/09 01:41:30;;;;;;;0.93;0.55;;;15.30;99.90;;;;;;4944129;29;20031;-74
2022/08/09 01:44:00;;;;;;;0.70;0.70;;;15.10;99.90;;;;;;4943875;29;20024;-74
2022/08/09 01:46:30;;;;;;;1.80;1.08;;;15.30;99.90;;;;;;4944041;29;21305;-74
2022/08/09 01:49:04;;;;;;;1.60;0.82;;;15.20;99.90;;;;;;4944453;29;20023;-73
2022/08/09 01:51:30;;;;;;;;;;;15.20;99.90;;;;;;4943108;29;20096;-73
2022/08/09 01:53:59;;;;;;;1.13;0.77;;;15.20;99.90;;;;;;4944011;29;19915;-74
2022/08/09 01:56:27;;;;;;;1.55;1.20;;;15.20;99.90;;;;;;4942471;29;20589;-73
2022/08/09 01:59:02;;;;;;;6.57;1.00;;;15.10;99.90;;;;;;4943592;29;20043;-72
2022/08/09 02:01:30;;;;;;;2.60;1.23;;;15.10;99.90;;;;;;4943912;29;20035;-72
2022/08/09 02:03:58;;;;;;;4.13;1.08;;;15.10;99.90;;;;;;4943643;29;20032;-72
2022/08/09 02:09:15;;;;;;;2.55;0.90;;;15.10;99.90;;;;;;4943353;29;20099;-72
2022/08/09 02:11:40;;;;;;;2.10;1.23;;;15.10;99.90;;;;;;4943295;29;20427;-71
2022/08/09 02:14:07;;;;;;;10.45;1.63;;;15.00;99.90;;;;;;4942895;29;20032;-72
2022/08/09 02:16:38;;;;;;;7.20;1.25;;;15.10;99.90;;;;;;4943302;29;20051;-72
2022/08/09 02:19:04;;;;;;;1.23;1.13;;;15.10;99.90;;;;;;4957317;28;20046;-72
2022/08/09 02:21:38;;;;;;;1.25;0.98;;;15.10;99.90;;;;;;4942752;29;20035;-73
2022/08/09 02:24:09;;;;;;;2.15;1.00;;;15.00;99.90;;;;;;4943095;29;20107;-71
2022/08/09 02:26:36;;;;;;;6.00;1.38;;;15.00;99.90;;;;;;4943107;29;20453;-72
2022/08/09 02:29:24;;;;;;;2.45;1.17;;;15.00;99.90;;;;;;4943288;29;20054;-73
2022/08/09 02:31:55;;;;;;;2.47;1.20;;;15.00;99.90;;;;;;4942116;29;20054;-72
2022/08/09 02:34:27;;;;;;;2.65;1.10;;;14.90;99.90;;;;;;4941321;29;20038;-72
2022/08/09 02:36:55;;;;;;;2.15;1.40;;;14.80;99.90;;;;;;4943119;29;20463;-72
2022/08/09 02:39:34;;;;;;;1.33;1.17;;;15.00;99.90;;;;;;4942701;29;20024;-72
2022/08/09 02:42:06;;;;;;;5.22;1.63;;;15.00;99.90;;;;;;4943224;29;20020;-72
2022/08/09 02:44:39;;;;;;;1.75;1.25;;;14.90;99.90;;;;;;4943615;29;20114;-71
2022/08/09 02:47:08;;;;;;;4.43;1.50;;;14.90;99.90;;;;;;4943147;29;20036;-72
2022/08/09 02:49:39;;;;;;;2.22;1.30;;;14.90;99.90;;;;;;4941688;29;20024;-72
2022/08/09 02:52:08;;;;;;;3.50;1.48;;;14.80;99.90;;;;;;4943188;29;20027;-73
2022/08/09 02:54:36;;;;;;;3.55;1.63;;;14.80;99.90;;;;;;4942540;29;20044;-72
2022/08/09 02:57:03;;;;;;;5.88;1.95;;;14.80;99.90;;;;;;4942972;29;20036;-73
2022/08/09 02:59:32;;;;;;;3.75;1.17;;;14.70;99.90;;;;;;4942978;29;20024;-73
2022/08/09 03:01:59;;;;;;;2.10;1.33;;;14.70;99.90;;;;;;4941010;29;20049;-72
2022/08/09 03:04:26;;;;;;;2.88;1.10;;;14.70;99.90;;;;;;4943441;29;20178;-73
2022/08/09 03:06:53;;;;;;;2.90;1.30;;;14.70;99.90;;;;;;4942761;29;20605;-72
2022/08/09 03:09:20;;;;;;;5.13;1.98;;;14.50;99.90;;;;;;4942706;29;20100;-72
2022/08/09 03:11:47;;;;;;;2.00;1.20;;;14.60;99.90;;;;;;4942405;29;20083;-73
2022/08/09 03:14:15;;;;;;;5.32;1.50;;;14.60;99.90;;;;;;4941506;29;20136;-74
2022/08/09 03:16:41;;;;;;;2.58;1.38;;;14.60;99.90;;;;;;4942198;29;20048;-72
2022/08/09 03:19:08;;;;;;;1.70;1.48;;;14.60;99.90;;;;;;4942653;29;20115;-73
2022/08/09 03:21:35;;;;;;;2.55;1.30;;;14.50;99.90;;;;;;4942698;29;20036;-73
2022/08/09 03:24:01;;;;;;;4.10;1.15;;;14.50;99.90;;;;;;4941634;29;20041;-74
2022/08/09 03:26:28;;;;;;;2.80;1.52;;;14.50;99.90;;;;;;4943001;29;20055;-74
2022/08/09 03:28:57;;;;;;;7.10;2.22;;;14.60;99.90;;;;;;4943120;29;20032;-73
2022/08/09 03:31:25;;;;;;;4.70;1.88;;;14.50;99.90;;;;;;4943948;29;20036;-73
2022/08/09 03:33:51;;;;;;;2.45;1.33;;;14.50;99.90;;;;;;4944528;29;20047;-73
2022/08/09 03:36:17;;;;;;;4.57;1.30;;;14.40;99.90;;;;;;4944945;29;20032;-73
2022/08/09 03:38:43;;;;;;;1.20;1.10;;;14.50;99.90;;;;;;4945195;29;20091;-73
2022/08/09 03:41:14;;;;;;;2.80;1.30;;;14.50;99.90;;;;;;4946330;29;20087;-74
2022/08/09 03:43:39;;;;;;;2.70;1.60;;;14.50;99.90;;;;;;4944496;29;20036;-73
2022/08/09 03:46:05;;;;;;;2.45;1.35;;;14.50;99.90;;;;;;4945731;29;20079;-73
2022/08/09 03:48:34;;;;;;;3.00;1.52;;;14.50;99.90;;;;;;4946129;29;20088;-75
2022/08/09 03:51:01;;;;;;;2.22;1.70;;;14.50;99.90;;;;;;4960242;29;20032;-73
2022/08/09 03:53:28;;;;;;;3.75;1.38;;;14.50;99.90;;;;;;4946405;29;20036;-73
2022/08/09 03:55:53;;;;;;;2.47;1.40;;;14.50;99.90;;;;;;4945962;29;20032;-73
2022/08/09 03:58:20;;;;;;;2.50;1.42;;;14.50;99.90;;;;;;4945964;29;20035;-73
2022/08/09 04:00:46;;;;;;;4.28;1.23;;;14.50;99.90;;;;;;4945224;29;20054;-73
2022/08/09 04:03:12;;;;;;;2.08;1.23;;;14.50;99.90;;;;;;4945375;29;20063;-75
2022/08/09 04:05:38;;;;;;;1.77;0.90;;;14.50;99.90;;;;;;4945802;29;20019;-73
2022/08/09 04:08:04;;;;;;;2.00;1.50;;;14.50;99.90;;;;;;4945996;29;20024;-74
2022/08/09 04:10:29;;;;;;;1.83;1.23;;;14.50;99.90;;;;;;4945725;29;20079;-74
2022/08/09 04:12:56;;;;;;;1.83;1.20;;;14.60;99.90;;;;;;4944918;29;20528;-73
2022/08/09 04:15:23;;;;;;;1.45;1.15;;;14.50;99.90;;;;;;4945784;29;20814;-74
2022/08/09 04:17:49;;;;;;;1.65;1.23;;;14.50;99.90;;;;;;4944493;29;20047;-73
2022/08/09 04:20:15;;;;;;;2.28;1.52;;;14.50;99.90;;;;;;4945700;29;20055;-73
2022/08/09 04:22:42;;;;;;;5.70;1.30;;;14.60;99.90;;;;;;4945710;29;20019;-73
2022/08/09 04:25:09;;;;;;;2.75;1.67;;;14.60;99.90;;;;;;4944971;29;20028;-74
2022/08/09 04:27:39;;;;;;;6.05;1.40;;;14.60;99.90;;;;;;4944669;29;20031;-74
2022/08/09 04:30:09;;;;;;;1.95;1.10;;;14.60;99.90;;;;;;4945414;29;20038;-73
2022/08/09 04:32:35;;;;;;;6.75;1.90;;;14.60;99.90;;;;;;4943456;29;20034;-73
2022/08/09 04:35:01;;;;;;;2.03;1.42;;;14.60;99.90;;;;;;4944024;29;20115;-74
2022/08/09 04:37:27;;;;;;;1.70;1.23;;;14.60;99.90;;;;;;4945519;29;20031;-74
2022/08/09 04:39:53;;;;;;;3.40;1.40;;;14.70;99.90;;;;;;4945087;29;20028;-74
2022/08/09 04:42:19;;;;;;;2.33;1.58;;;14.70;99.90;;;;;;4943800;29;20118;-73
2022/08/09 04:44:45;;;;;;;2.50;1.35;;;14.80;99.90;;;;;;4943272;29;20023;-73
2022/08/09 04:47:10;;;;;;;8.70;1.75;;;14.60;99.90;;;;;;4943002;29;20027;-73
2022/08/09 04:49:36;;;;;;;3.47;1.50;;;14.80;99.90;;;;;;4943734;29;20027;-73
2022/08/09 04:52:04;;;;;;;2.53;1.60;;;14.80;99.90;;;;;;4945035;29;20056;-74
2022/08/09 04:54:31;;;;;;;4.78;1.92;;;14.80;99.90;;;;;;4943229;29;20070;-74
2022/08/09 04:56:57;;;;;;;2.97;1.45;;;14.80;99.90;;;;;;4944733;29;20085;-74
2022/08/09 04:59:23;;;;;;;2.33;1.70;;;14.80;99.90;;;;;;4944929;29;20032;-74
2022/08/09 05:01:49;;;;;;;2.42;1.50;;;14.90;99.90;;;;;;4944787;29;20096;-74
2022/08/09 05:04:14;;;;;;;2.53;1.13;;;15.00;99.90;;;;;;4945119;29;20062;-74
2022/08/09 05:06:40;;;;;;;4.28;1.80;;;14.90;99.90;;;;;;4944602;29;20050;-75
2022/08/09 05:09:05;;;;;;;3.42;1.10;;;15.00;99.90;;;;;;4943556;29;20026;-74
2022/08/09 05:11:31;;;;;;;7.07;1.33;;;15.10;99.90;;;;;;4944918;29;20070;-74
2022/08/09 05:13:57;;;;;;;7.30;1.83;;;15.10;99.90;;;;;;4944124;29;20043;-74
2022/08/09 05:16:22;;;;;;;2.58;1.58;;;15.10;99.90;;;;;;4944319;29;20610;-74
2022/08/09 05:18:48;;;;;;;3.15;1.67;;;15.10;99.90;;;;;;4943657;29;20058;-78
2022/08/09 05:21:14;;;;;;;3.15;1.00;;;15.20;99.90;;;;;;4942014;29;20042;-75
2022/08/09 05:23:39;;;;;;;2.45;1.45;;;15.20;99.90;;;;;;4944184;29;20074;-76
2022/08/09 05:26:05;;;;;;;1.98;1.38;;;15.20;99.90;;;;;;4944073;29;20027;-76
2022/08/09 05:28:34;;;;;;;7.20;2.15;;;15.20;99.90;;;;;;4941470;29;20087;-77
2022/08/09 05:30:59;;;;;;;2.90;1.77;;;15.30;99.90;;;;;;4944007;29;20038;-76
2022/08/09 05:33:25;;;;;;;2.55;1.27;;;15.30;99.90;;;;;;4941834;29;20063;-76
2022/08/09 05:35:51;;;;;;;2.40;1.23;;;15.30;99.90;;;;;;4941088;29;20042;-75
2022/08/09 05:38:17;;;;;;;3.67;1.63;;;15.50;99.90;;;;;;4942931;29;20696;-75
2022/08/09 05:40:42;;;;;;;4.20;1.30;;;15.40;99.90;;;;;;4942026;29;20098;-74
2022/08/09 05:43:08;;;;;;;5.97;1.63;;;15.50;99.90;;;;;;4941808;29;20031;-76
2022/08/09 05:45:33;;;;;;;3.17;1.42;;;15.40;99.90;;;;;;4944183;29;20088;-76
2022/08/09 05:47:59;;;;;;;3.10;1.45;;;15.50;99.90;;;;;;4943858;29;20100;-75
2022/08/09 05:50:25;;;;;;;2.22;1.20;;;15.50;99.90;;;;;;4943419;29;20088;-75
2022/08/09 05:52:51;;;;;;;3.30;1.30;;;15.50;99.90;;;;;;4942764;29;20168;-76
2022/08/09 05:55:18;;;;;;;2.17;1.50;;;15.40;99.90;;;;;;4942518;29;20035;-76
2022/08/09 05:57:43;;;;;;;2.35;1.70;;;15.60;99.90;;;;;;4942212;29;20958;-76
2022/08/09 06:00:10;;;;;;;4.72;1.48;;;15.60;99.90;;;;;;4943846;29;20158;-76
2022/08/09 06:02:36;;;;;;;2.53;1.00;;;15.70;99.90;;;;;;4942065;29;20383;-77
2022/08/09 06:05:02;;;;;;;8.73;1.88;;;15.70;99.90;;;;;;4942608;29;20024;-77
2022/08/09 06:07:28;;;;;;;2.38;1.17;;;15.80;99.90;;;;;;4943793;29;20043;-78
2022/08/09 06:09:55;;;;;;;4.82;1.35;;;15.80;99.90;;;;;;4941045;29;20039;-78
2022/08/09 06:12:21;;;;;;;1.63;0.98;;;15.80;99.90;;;;;;4940503;29;20079;-78
2022/08/09 06:14:46;;;;;;;1.23;0.77;;;15.80;99.90;;;;;;4942040;29;20078;-76
2022/08/09 06:17:12;;;;;;;9.23;1.48;;;15.80;99.90;;;;;;4940417;29;20043;-78
2022/08/09 06:19:37;;;;;;;2.63;1.05;;;16.00;99.90;;;;;;4941325;29;20024;-76
2022/08/09 06:22:05;;;;;;;1.10;0.77;;;15.90;99.90;;;;;;4942084;29;20030;-77
2022/08/09 06:24:31;;;;;;;1.38;0.98;;;16.00;99.90;;;;;;4941917;29;20555;-77
2022/08/09 06:26:57;;;;;;;4.88;1.45;;;16.00;99.90;;;;;;4943719;29;20023;-76
2022/08/09 06:29:23;;;;;;;1.55;0.90;;;16.10;99.90;;;;;;4942122;29;20028;-78
2022/08/09 06:31:49;;;;;;;1.60;0.80;;;16.10;99.90;;;;;;4941382;29;20138;-77
2022/08/09 06:34:14;;;;;;;1.83;1.08;;;16.20;99.90;;;;;;4941993;29;20043;-78
2022/08/09 06:36:40;;;;;;;3.88;1.77;;;16.30;99.90;;;;;;4941474;29;20028;-76
2022/08/09 06:39:09;;;;;;;9.27;1.20;;;16.40;99.90;;;;;;4941005;29;20111;-78
2022/08/09 06:41:36;;;;;;;2.92;1.00;;;16.30;99.90;;;;;;4941557;29;20024;-77
2022/08/09 06:44:02;;;;;;;2.25;0.90;;;16.30;99.90;;;;;;4942454;29;20074;-77
2022/08/09 06:46:29;;;;;;;1.63;0.98;;;16.50;99.90;;;;;;4941881;29;20039;-78
2022/08/09 06:48:54;;;;;;;1.85;0.85;;;16.50;99.90;;;;;;4940519;29;20156;-78
2022/08/09 06:51:20;;;;;;;2.40;1.35;;;16.60;99.90;;;;;;4939692;29;20483;-76
2022/08/09 06:53:46;;;;;;;1.52;0.93;;;16.70;99.90;;;;;;4941504;29;20082;-75
2022/08/09 06:56:11;;;;;;;1.23;0.63;;;16.60;99.90;;;;;;4941538;29;20455;-77
2022/08/09 06:58:38;;;;;;;2.75;0.82;;;16.80;99.90;;;;;;4940692;29;20083;-78
2022/08/09 07:01:03;;;;;;;1.95;0.80;;;16.90;99.90;;;;;;4941515;29;20091;-77
2022/08/09 07:03:29;;;;;;;4.63;1.27;;;16.90;99.90;;;;;;4940719;29;20532;-75
2022/08/09 07:05:56;;;;;;;1.17;0.90;;;16.90;99.90;;;;;;4941793;29;20051;-76
2022/08/09 07:08:22;;;;;;;2.63;0.90;;;17.00;99.90;;;;;;4945250;29;20641;-78
2022/08/09 07:10:48;;;;;;;4.72;0.85;;;17.10;99.90;;;;;;4944728;29;20063;-77
2022/08/09 07:13:13;;;;;;;1.55;0.82;;;17.20;99.90;;;;;;4946292;29;20047;-76
2022/08/09 07:15:39;;;;;;;1.50;0.70;;;17.20;99.90;;;;;;4946886;29;20035;-75
2022/08/09 07:18:04;;;;;;;1.05;0.95;;;17.30;99.90;;;;;;4945069;29;20147;-78
2022/08/09 07:20:30;;;;;;;1.45;1.00;;;17.40;99.90;;;;;;4946046;29;20024;-76
2022/08/09 07:22:56;;;;;;;0.95;0.60;;;17.50;99.90;;;;;;4944986;29;20082;-78
2022/08/09 07:25:21;;;;;;;1.85;0.90;;;17.50;99.90;;;;;;4946295;29;20095;-78
2022/08/09 07:27:47;;;;;;;2.92;1.02;;;17.60;99.90;;;;;;4946628;29;20024;-74
2022/08/09 07:30:13;;;;;;;2.33;1.27;;;17.60;99.90;;;;;;4945696;29;20063;-76
2022/08/09 07:32:42;;;;;;;3.17;1.15;;;17.80;99.90;;;;;;4944217;29;20066;-77
2022/08/09 07:35:10;;;;;;;1.08;0.75;;;17.90;99.90;;;;;;4945784;29;20055;-76
2022/08/09 07:37:36;;;;;;;1.35;0.95;;;18.00;99.90;;;;;;4945449;29;20075;-77
2022/08/09 07:40:02;;;;;;;1.15;0.82;;;18.10;99.90;;;;;;4945979;29;20063;-77
2022/08/09 07:42:28;;;;;;;1.73;0.60;;;18.20;99.90;;;;;;4945718;29;20054;-77
2022/08/09 07:44:53;;;;;;;0.88;0.50;;;18.40;99.90;;;;;;4946115;29;20036;-76
2022/08/09 07:47:20;;;;;;;0.93;0.73;;;18.60;99.90;;;;;;4945735;29;20030;-76
2022/08/09 07:49:46;;;;;;;0.50;0.50;;;18.60;99.90;;;;;;4945888;29;20439;-76
2022/08/09 07:52:12;;;;;;;0.70;0.60;;;18.70;99.90;;;;;;4945127;29;20063;-77
2022/08/09 07:54:38;;;;;;;0.68;0.47;;;18.90;99.90;;;;;;4944359;29;20071;-76
2022/08/09 07:57:03;;;;;;;0.52;0.40;;;18.90;99.90;;;;;;4944580;29;20027;-76
2022/08/09 07:59:29;;;;;;;1.05;0.80;;;18.90;99.90;;;;;;4945811;29;20054;-78
2022/08/09 08:01:55;;;;;;;1.25;0.38;;;19.00;99.90;;;;;;4945123;29;20039;-78
2022/08/09 08:04:21;;;;;;;2.05;0.57;;;19.10;99.90;;;;;;4940785;29;20032;-77
2022/08/09 08:06:47;;;;;;;2.35;0.85;;;19.10;99.90;;;;;;4940628;29;20440;-77
2022/08/09 08:09:13;;;;;;;0.38;0.38;;;19.20;99.90;;;;;;4940071;29;20047;-78
2022/08/09 08:11:39;;;;;;;0.50;0.30;;;19.20;99.90;;;;;;4944487;29;20107;-78
2022/08/09 08:14:05;;;;;;;0.68;0.47;;;19.30;99.90;;;;;;4944105;29;20114;-78
2022/08/09 08:16:31;;;;;;;1.00;0.57;;;19.30;99.90;;;;;;4939670;29;20104;-78
2022/08/09 08:18:56;;;;;;;1.17;0.70;;;19.40;99.90;;;;;;4944410;29;20040;-78
2022/08/09 08:21:23;;;;;;;1.35;0.52;;;19.40;99.90;;;;;;4944695;29;20042;-76
2022/08/09 08:23:49;;;;;;;0.57;0.40;;;19.40;99.90;;;;;;4941220;29;20416;-76
2022/08/09 08:26:14;;;;;;;0.25;0.25;;;19.50;99.90;;;;;;4945920;29;20043;-77
2022/08/09 08:28:40;;;;;;;2.40;0.68;;;19.50;99.90;;;;;;4945005;29;20063;-77
2022/08/09 08:31:05;;;;;;;0.43;0.40;;;19.50;99.90;;;;;;4945719;29;20035;-79
2022/08/09 08:33:31;;;;;;;0.38;0.38;;;19.60;99.90;;;;;;4938414;29;20484;-77
2022/08/09 08:35:57;;;;;;;1.23;0.57;;;19.70;99.90;;;;;;4940608;29;21019;-77
2022/08/09 08:38:23;;;;;;;3.22;0.38;;;19.70;99.90;;;;;;4940430;29;20055;-76
2022/08/09 08:40:51;;;;;;;0.50;0.50;;;19.80;99.90;;;;;;4943330;29;20051;-76
2022/08/09 08:43:17;;;;;;;1.95;0.85;;;19.90;99.90;;;;;;4944381;29;20047;-77
2022/08/09 08:46:02;;;;;;;1.98;0.70;;;19.90;99.90;;;;;;4942671;29;20044;-80
2022/08/09 08:48:28;;;;;;;0.95;0.63;;;20.10;99.90;;;;;;4945830;29;20059;-77
2022/08/09 08:50:54;;;;;;;0.80;0.50;;;20.20;99.90;;;;;;4943877;29;20441;-77
2022/08/09 08:53:20;;;;;;;1.58;0.52;;;20.30;99.90;;;;;;4945522;29;20016;-76
2022/08/09 08:55:45;;;;;;;3.35;0.52;;;20.50;99.90;;;;;;4944412;29;20024;-77
2022/08/09 08:58:11;;;;;;;1.27;0.50;;;20.70;99.90;;;;;;4944316;29;20039;-79
2022/08/09 09:00:40;;;;;;;0.50;0.35;;;20.70;99.90;;;;;;4943351;29;20038;-80
2022/08/09 09:03:06;;;;;;;0.63;0.50;;;20.80;99.90;;;;;;4943883;29;20035;-77
2022/08/09 09:05:32;;;;;;;0.57;0.28;;;20.90;99.90;;;;;;4943690;29;20032;-73
2022/08/09 09:07:59;;;;;;;3.58;0.50;;;20.90;99.90;;;;;;4944429;29;20088;-75
2022/08/09 09:10:26;;;;;;;0.80;0.35;;;21.00;99.90;;;;;;4944589;29;20046;-75
2022/08/09 09:12:53;;;;;;;0.95;0.65;;;21.10;99.90;;;;;;4945296;29;20028;-76
2022/08/09 09:15:19;;;;;;;0.30;0.30;;;21.20;99.90;;;;;;4943929;29;20633;-76
2022/08/09 09:17:45;;;;;;;0.60;0.32;;;21.30;99.90;;;;;;4943264;29;20048;-77
2022/08/09 09:20:12;;;;;;;0.25;0.17;;;21.30;99.90;;;;;;4945337;29;20024;-75
2022/08/09 09:22:58;;;;;;;0.68;0.40;;;21.40;99.90;;;;;;4945476;29;20020;-75
2022/08/09 09:25:34;;;;;;;0.60;0.60;;;21.50;99.90;;;;;;4942780;29;20047;-78
2022/08/09 09:28:01;;;;;;;0.55;0.30;;;21.70;99.90;;;;;;4943224;29;20078;-77
2022/08/09 09:30:27;;;;;;;0.93;0.30;;;21.70;99.90;;;;;;4941274;29;20095;-76
2022/08/09 09:33:07;;;;;;;0.50;0.30;;;21.80;99.90;;;;;;4943342;29;20067;-76
2022/08/09 09:35:33;;;;;;;0.30;0.30;;;21.90;99.90;;;;;;4943492;29;20042;-76
2022/08/09 09:37:59;;;;;;;0.45;0.40;;;22.00;99.90;;;;;;4945296;29;20047;-77
2022/08/09 09:40:42;;;;;;;1.17;0.50;;;22.00;99.90;;;;;;4943542;29;20032;-75
2022/08/09 09:43:08;;;;;;;0.32;0.32;;;22.10;99.90;;;;;;4944132;29;20042;-76
2022/08/09 09:45:53;;;;;;;0.98;0.32;;;22.10;99.90;;;;;;4945137;29;20036;-77
2022/08/09 09:48:20;;;;;;;1.75;0.50;;;22.10;99.90;;;;;;4941392;29;20035;-76
2022/08/09 09:50:48;;;;;;;0.65;0.50;;;22.20;99.90;;;;;;4942695;29;20138;-76
2022/08/09 09:53:21;;;;;;;4.38;0.45;;;22.20;99.90;;;;;;4943099;29;20106;-75
2022/08/09 09:55:56;;;;;;;2.35;0.85;;;22.20;99.90;;;;;;4944697;29;20028;-77
2022/08/09 09:58:22;;;;;;;0.65;0.17;;;22.30;99.90;;;;;;4944698;29;20130;-76
2022/08/09 10:00:52;;;;;;;0.20;0.20;;;22.40;99.90;;;;;;4944003;29;20488;-76
2022/08/09 10:03:35;;;;;;;4.55;0.57;;;22.40;99.90;;;;;;4943185;29;20024;-77
2022/08/09 10:06:01;;;;;;;0.30;0.30;;;22.50;99.90;;;;;;4942995;29;20051;-75
2022/08/09 10:08:26;;;;;;;0.55;0.38;;;22.60;99.90;;;;;;4941630;29;20039;-75
2022/08/09 10:10:52;;;;;;;2.45;0.43;;;22.60;99.90;;;;;;4936081;29;20040;-77
2022/08/09 10:13:18;;;;;;;9.77;0.85;;;22.60;99.90;;;;;;4937784;29;20035;-76
2022/08/09 10:15:49;;;;;;;0.30;0.30;;;22.70;99.90;;;;;;4942241;29;20034;-74
2022/08/09 10:18:15;;;;;;;0.17;0.15;;;22.80;99.90;;;;;;4942144;29;20071;-75
2022/08/09 10:20:40;;;;;;;4.68;0.50;;;22.80;99.90;;;;;;4944314;29;20036;-76
2022/08/09 10:23:18;;;;;;;0.63;0.40;;;22.90;99.90;;;;;;4939995;29;20020;-76
2022/08/09 10:25:45;;;;;;;4.43;0.50;;;23.00;99.90;;;;;;4943597;29;20027;-75
2022/08/09 10:28:11;;;;;;;0.40;0.25;;;23.00;99.90;;;;;;4943173;29;20761;-75
2022/08/09 10:30:37;;;;;;;1.67;0.75;;;23.00;99.90;;;;;;4942204;29;20062;-75
2022/08/09 10:33:03;;;;;;;1.77;0.35;;;23.10;99.90;;;;;;4944444;29;20028;-76
2022/08/09 10:35:30;;;;;;;1.58;0.43;;;23.20;99.90;;;;;;4944253;29;20146;-76
2022/08/09 10:37:59;;;;;;;0.20;0.20;;;23.30;99.90;;;;;;4943681;29;20051;-76
2022/08/09 10:40:25;;;;;;;0.85;0.47;;;23.30;99.90;;;;;;4943993;29;20028;-77
2022/08/09 10:42:51;;;;;;;0.75;0.20;;;23.40;99.90;;;;;;4942385;29;20031;-79
2022/08/09 10:45:17;;;;;;;0.80;0.40;;;23.60;99.90;;;;;;4942101;29;20500;-77
2022/08/09 10:48:09;;;;;;;0.57;0.35;;;23.70;99.90;;;;;;4942880;29;20040;-77
2022/08/09 10:54:13;;;;;;;0.35;0.30;;;23.90;99.90;;;;;;4944028;29;20050;-79
2022/08/09 10:56:41;;;;;;;0.52;0.40;;;24.00;99.90;;;;;;4920952;29;20072;-77
2022/08/09 10:59:22;;;;;;;0.63;0.38;;;24.10;99.90;;;;;;4920971;29;20024;-77
2022/08/09 11:01:48;;;;;;;1.05;0.40;;;24.30;99.90;;;;;;4933814;29;20043;-77
2022/08/09 11:04:23;;;;;;;0.38;0.28;;;24.40;99.90;;;;;;4940956;29;20102;-78
2022/08/09 11:07:17;;;;;;;0.90;0.52;;;24.60;99.90;;;;;;4941286;29;20039;-80
2022/08/09 11:09:42;;;;;;;1.27;0.50;;;24.70;99.90;;;;;;4943485;29;20028;-77
2022/08/09 11:12:23;;;;;;;0.75;0.40;;;24.80;99.90;;;;;;4943792;29;20110;-75
2022/08/09 11:14:56;;;;;;;0.55;0.38;;;24.90;99.90;;;;;;4941066;29;20032;-78
2022/08/09 11:17:23;;;;;;;2.40;0.52;;;25.00;99.90;;;;;;4940144;29;20079;-77
2022/08/09 11:20:00;;;;;;;0.57;0.40;;;25.10;99.90;;;;;;4936043;29;20055;-77
2022/08/09 11:22:43;;;;;;;1.08;0.45;;;25.20;99.90;;;;;;4939306;29;20449;-79
2022/08/09 11:25:17;;;;;;;0.83;0.57;;;25.20;99.90;;;;;;4940905;29;20031;-76
2022/08/09 11:27:44;;;;;;;;;;;25.30;99.90;;;;;;4941680;29;20503;-77
2022/08/09 11:30:11;;;;;;;0.75;0.40;;;25.40;99.90;;;;;;4941435;29;20025;-77
2022/08/09 11:33:07;;;;;;;0.60;0.30;;;25.60;99.90;;;;;;4942593;29;20055;-78
2022/08/09 11:35:42;;;;;;;0.20;0.20;;;25.70;99.90;;;;;;4938263;29;20665;-81
2022/08/09 11:38:15;;;;;;;;;;;25.80;99.90;;;;;;4938664;29;20099;-78
2022/08/09 11:40:41;;;;;;;1.50;0.73;;;25.80;99.90;;;;;;4940105;29;19938;-76
2022/08/09 11:43:07;;;;;;;1.25;0.32;;;25.90;99.90;;;;;;4943721;29;20028;-78
2022/08/09 11:45:39;;;;;;;1.30;0.60;;;25.90;99.90;;;;;;4942455;29;20035;-78
2022/08/09 11:48:10;;;;;;;0.70;0.30;;;26.10;99.90;;;;;;4942607;29;20043;-76
2022/08/09 11:50:56;;;;;;;0.25;0.25;;;26.20;99.90;;;;;;4943032;29;20119;-79
2022/08/09 11:53:22;;;;;;;0.35;0.17;;;26.30;99.90;;;;;;4933841;29;20040;-77
2022/08/09 11:55:50;;;;;;;4.72;0.32;;;26.20;99.90;;;;;;4945220;29;20122;-77
2022/08/09 11:58:15;;;;;;;0.22;0.17;;;26.30;99.90;;;;;;4942770;29;20038;-77
2022/08/09 12:00:49;;;;;;;0.30;0.30;;;26.30;99.90;;;;;;4943534;29;20047;-78
2022/08/09 12:03:17;;;;;;;1.20;0.40;;;26.50;99.90;;;;;;4945861;29;20043;-77
2022/08/09 12:05:44;;;;;;;0.17;0.17;;;26.70;99.90;;;;;;4944829;29;20404;-76
2022/08/09 12:08:10;;;;;;;0.35;0.20;;;26.90;99.90;;;;;;4946459;29;20054;-76
2022/08/09 12:10:43;;;;;;;0.65;0.30;;;27.00;99.90;;;;;;4945489;29;20024;-79
2022/08/09 12:13:09;;;;;;;0.43;0.17;;;27.10;99.90;;;;;;4946842;29;20024;-80
2022/08/09 12:15:35;;;;;;;2.85;0.32;;;27.20;99.90;;;;;;4945200;29;20032;-78
2022/08/09 12:18:01;;;;;;;0.30;0.30;;;27.20;99.90;;;;;;4946049;29;20051;-75
2022/08/09 12:20:29;;;;;;;0.32;0.25;;;27.40;99.90;;;;;;4945959;29;20087;-78
2022/08/09 12:22:58;;;;;;;0.43;0.13;;;27.50;99.90;;;;;;4946278;29;20024;-78
2022/08/09 12:25:25;;;;;;;0.15;0.10;;;27.60;99.90;;;;;;4945158;29;20059;-77
2022/08/09 12:28:15;;;;;;;0.47;0.20;;;27.70;99.90;;;;;;4945819;29;20051;-76
2022/08/09 12:30:41;;;;;;;0.30;0.30;;;27.70;99.90;;;;;;4946558;29;20036;-78
2022/08/09 12:33:07;;;;;;;0.52;0.50;;;27.70;99.90;;;;;;4945165;29;20031;-78
2022/08/09 12:35:34;;;;;;;3.30;0.70;;;27.80;99.90;;;;;;4945742;29;20044;-76
2022/08/09 12:38:27;;;;;;;1.60;0.50;;;27.90;99.90;;;;;;4946305;29;20036;-74
2022/08/09 12:40:53;;;;;;;0.50;0.38;;;28.10;99.90;;;;;;4946115;29;20431;-74
2022/08/09 12:43:20;;;;;;;1.05;0.20;;;28.30;99.90;;;;;;4945301;29;20042;-75
2022/08/09 12:45:47;;;;;;;4.68;0.30;;;28.40;99.90;;;;;;4946040;29;20019;-76
2022/08/09 12:48:14;;;;;;;1.52;0.47;;;28.60;99.90;;;;;;4945895;29;20063;-75
2022/08/09 12:50:41;;;;;;;0.45;0.22;;;28.80;99.90;;;;;;4944217;29;20071;-74
2022/08/09 12:53:22;;;;;;;0.75;0.30;;;29.00;99.90;;;;;;4944711;29;20035;-74
2022/08/09 12:55:48;;;;;;;3.33;0.50;;;29.00;99.90;;;;;;4945579;29;20035;-76
2022/08/09 12:58:14;;;;;;;1.90;0.47;;;29.10;99.90;;;;;;4945363;29;20034;-75
2022/08/09 13:00:42;;;;;;;0.60;0.32;;;29.20;99.90;;;;;;4946021;29;20039;-73